KHEZ/HEZ METAR and TAF weather

Enter ICAO airport designator
Station Type Date Time Source
KHEZ METAR 2022/12/04 04:56 UTC NOAA

KHEZ 040456Z AUTO 05009KT 10SM CLR 12/09 A3033 RMK AO2 SLP272 T01220089 402610122


Station Type Date Time Source
KHEZ Decoded METAR 2022/12/04 04:56 UTC NOAA

Natchez, Hardy-Anders Field Natchez-Adams County Airport, MS, United States (KHEZ) 31-37N 091-18W
Dec 03, 2022 - 11:56 PM EST / 2022.12.04 0456 UTC
Wind: from the NE (050 degrees) at 10 MPH (9 KT):0
Visibility: 10 mile(s):0
Sky conditions: clear
Temperature: 54.0 F (12.2 C)
Dew Point: 48.0 F (8.9 C)
Relative Humidity: 80%
Pressure (altimeter): 30.33 in. Hg (1027 hPa)
ob: KHEZ 040456Z AUTO 05009KT 10SM CLR 12/09 A3033 RMK AO2 SLP272 T01220089 402610122
cycle: 5

Station Type Date Time Source
KHEZ TAF UTC NOAA

Error!

Example: see airport list